Terminal Aerodrome Forecast
Issued by NWS

Home | Current Version | Previous Version | Text Only | Print | Product List | Glossary Off
Versions: 1 2 3 4 5 6 7 8 9 10 11 12 13 14 15 16 17 18 19 20 21 22

000
FTUS43 KICT 231130
TAFRSL
TAF
KRSL 231130Z 2312/2412 18015KT P6SM SCT090 SCT250
     FM231700 18021G30KT P6SM SCT040
     FM240600 20014G20KT P6SM SCT250
     FM240900 32011KT P6SM SKC=

USA.gov is the U.S. government's official web portal to all federal, state and local government web resources and services.